Time;durP1;ratioP1;P1;durP2;ratioP2;P2;SDS_P1;SDS_P2;PMS_P1;PMS_P2;Temp;Humidity;BMP_temperature;BMP_pressure;BME280_temperature;BME280_humidity;BME280_pressure;Samples;Min_cycle;Max_cycle;Signal;HPM_P1;HPM_P2
2022/08/06 00:00:33;;;;;;;3.45;3.15;;;22.00;75.00;;;;;;5014599;28;20050;-65
2022/08/06 00:02:59;;;;;;;3.30;3.00;;;22.00;75.30;;;;;;5014028;28;20089;-65
2022/08/06 00:05:26;;;;;;;3.60;3.15;;;22.00;75.70;;;;;;5009509;28;20164;-62
2022/08/06 00:07:51;;;;;;;3.38;3.08;;;22.00;75.80;;;;;;5012871;28;20034;-65
2022/08/06 00:10:18;;;;;;;3.20;2.90;;;22.00;75.80;;;;;;5011951;28;20521;-63
2022/08/06 00:12:45;;;;;;;3.58;3.15;;;22.00;76.10;;;;;;5003783;28;20230;-64
2022/08/06 00:15:11;;;;;;;4.38;3.45;;;22.00;76.10;;;;;;5001996;28;20034;-63
2022/08/06 00:17:38;;;;;;;3.67;3.38;;;22.00;76.10;;;;;;5009224;28;20528;-63
2022/08/06 00:20:05;;;;;;;4.65;2.90;;;22.10;76.50;;;;;;5010691;28;20436;-61
2022/08/06 00:22:31;;;;;;;2.72;2.45;;;22.10;76.70;;;;;;5006215;28;20080;-62
2022/08/06 00:24:57;;;;;;;3.15;2.40;;;22.10;76.50;;;;;;5011233;28;20282;-65
2022/08/06 00:27:23;;;;;;;2.50;2.20;;;22.10;76.30;;;;;;5007095;28;20052;-66
2022/08/06 00:29:49;;;;;;;3.72;1.70;;;22.20;76.20;;;;;;5007935;28;20046;-65
2022/08/06 00:32:15;;;;;;;2.28;1.60;;;22.20;76.00;;;;;;5005895;28;20132;-64
2022/08/06 00:34:41;;;;;;;2.03;1.83;;;22.20;76.00;;;;;;5006500;28;20125;-65
2022/08/06 00:37:07;;;;;;;2.75;1.60;;;22.30;76.20;;;;;;5006234;28;20401;-65
2022/08/06 00:39:33;;;;;;;2.22;1.92;;;22.30;76.90;;;;;;5006861;28;20087;-65
2022/08/06 00:41:59;;;;;;;2.13;1.92;;;22.30;76.00;;;;;;5008302;28;20034;-65
2022/08/06 00:44:25;;;;;;;3.03;2.00;;;22.30;75.80;;;;;;5001215;28;21009;-64
2022/08/06 00:46:51;;;;;;;2.20;1.80;;;22.30;75.60;;;;;;5003259;28;20033;-63
2022/08/06 00:49:17;;;;;;;2.13;1.92;;;22.30;75.50;;;;;;5004845;28;20027;-65
2022/08/06 00:51:43;;;;;;;2.40;2.20;;;22.40;75.50;;;;;;5003577;28;20045;-66
2022/08/06 00:54:09;;;;;;;2.20;1.95;;;22.40;75.40;;;;;;5009404;28;20038;-64
2022/08/06 00:56:35;;;;;;;3.92;2.10;;;22.40;75.60;;;;;;5005460;28;20054;-63
2022/08/06 00:59:00;;;;;;;2.30;2.10;;;22.40;75.60;;;;;;5010249;28;20040;-63
2022/08/06 01:01:26;;;;;;;2.92;2.22;;;22.40;75.90;;;;;;5002695;28;20049;-63
2022/08/06 01:03:52;;;;;;;2.80;2.45;;;22.40;76.00;;;;;;5007655;28;20084;-63
2022/08/06 01:06:20;;;;;;;2.13;2.00;;;22.40;75.90;;;;;;5005826;28;20124;-66
2022/08/06 01:08:46;;;;;;;2.00;1.80;;;22.50;76.00;;;;;;5005235;28;20038;-66
2022/08/06 01:11:12;;;;;;;1.40;1.30;;;22.50;76.00;;;;;;4999491;28;20085;-63
2022/08/06 01:13:37;;;;;;;1.67;1.40;;;22.50;76.00;;;;;;5002701;28;20038;-65
2022/08/06 01:16:10;;;;;;;1.77;1.30;;;22.50;75.80;;;;;;5003321;28;20768;-62
2022/08/06 01:18:54;;;;;;;1.75;1.65;;;22.50;76.30;;;;;;5005978;28;20054;-64
2022/08/06 01:21:54;;;;;;;2.03;1.70;;;22.50;76.20;;;;;;5003763;28;20061;-63
2022/08/06 01:24:41;;;;;;;1.60;1.40;;;22.50;76.40;;;;;;5008509;28;20033;-67
2022/08/06 01:27:48;;;;;;;2.92;1.98;;;22.50;75.20;;;;;;5010103;28;20120;-63
2022/08/06 01:30:17;;;;;;;4.50;2.90;;;22.50;76.50;;;;;;5004854;28;20513;-64
2022/08/06 01:32:51;;;;;;;4.85;2.95;;;22.50;74.90;;;;;;5006666;28;20061;-63
2022/08/06 01:35:27;;;;;;;4.78;4.28;;;22.40;75.80;;;;;;5004864;28;20069;-66
2022/08/06 01:38:19;;;;;;;6.38;5.28;;;22.30;75.80;;;;;;5006379;28;20041;-64
2022/08/06 01:40:47;;;;;;;5.38;4.88;;;22.30;76.10;;;;;;5005067;28;20461;-65
2022/08/06 01:43:16;;;;;;;6.20;4.95;;;22.20;75.50;;;;;;5001153;28;20116;-63
2022/08/06 01:45:43;;;;;;;5.78;4.25;;;22.10;75.70;;;;;;5005704;28;20542;-58
2022/08/06 01:48:14;;;;;;;3.63;3.33;;;22.10;75.30;;;;;;5003838;28;20116;-64
2022/08/06 01:50:44;;;;;;;4.63;3.28;;;22.00;73.30;;;;;;5008388;28;20934;-63
2022/08/06 01:53:14;;;;;;;4.30;2.70;;;21.90;72.30;;;;;;5008935;28;20060;-65
2022/08/06 01:55:44;;;;;;;4.20;2.45;;;21.80;70.90;;;;;;5003416;28;20034;-65
2022/08/06 01:58:10;;;;;;;2.78;2.25;;;21.60;71.30;;;;;;5005871;28;20041;-65
2022/08/06 02:00:39;;;;;;;2.95;2.58;;;21.40;70.90;;;;;;5009218;28;20033;-63
2022/08/06 02:03:18;;;;;;;4.38;2.55;;;21.30;70.60;;;;;;5005474;28;20054;-62
2022/08/06 02:05:45;;;;;;;2.72;2.53;;;21.10;70.40;;;;;;5007632;28;21275;-62
2022/08/06 02:08:14;;;;;;;4.18;2.55;;;20.90;70.60;;;;;;5010202;28;20088;-64
2022/08/06 02:10:41;;;;;;;4.70;2.22;;;20.80;71.10;;;;;;5005702;28;20166;-63
2022/08/06 02:13:09;;;;;;;3.60;2.80;;;20.60;71.40;;;;;;5006211;28;20041;-63
2022/08/06 02:15:36;;;;;;;2.75;2.50;;;20.60;71.70;;;;;;5008749;28;20076;-63
2022/08/06 02:18:08;;;;;;;2.50;2.30;;;20.50;71.80;;;;;;5006770;28;20042;-61
2022/08/06 02:20:40;;;;;;;2.50;2.30;;;20.40;72.00;;;;;;5008175;28;20402;-64
2022/08/06 02:23:13;;;;;;;3.55;2.50;;;20.40;72.30;;;;;;5011192;28;20084;-63
2022/08/06 02:25:41;;;;;;;3.45;2.53;;;20.30;72.20;;;;;;5005013;28;20069;-61
2022/08/06 02:28:09;;;;;;;2.63;2.20;;;20.20;72.30;;;;;;5010989;28;20569;-61
2022/08/06 02:30:38;;;;;;;4.38;2.88;;;20.10;72.60;;;;;;5008913;28;20034;-63
2022/08/06 02:33:06;;;;;;;4.75;2.38;;;20.10;72.50;;;;;;5011850;28;20459;-63
2022/08/06 02:35:35;;;;;;;3.20;2.10;;;20.10;72.60;;;;;;5016519;28;20030;-61
2022/08/06 02:38:05;;;;;;;3.40;2.30;;;20.00;73.00;;;;;;5012488;28;20026;-62
2022/08/06 02:40:44;;;;;;;2.70;2.50;;;20.10;73.60;;;;;;5007637;28;20117;-62
2022/08/06 02:43:18;;;;;;;3.47;2.30;;;20.10;73.40;;;;;;5012943;28;20041;-63
2022/08/06 02:45:55;;;;;;;3.28;2.25;;;20.10;73.50;;;;;;5008594;28;20061;-62
2022/08/06 02:48:25;;;;;;;2.53;2.33;;;20.10;73.20;;;;;;5009673;28;21124;-64
2022/08/06 02:50:52;;;;;;;2.60;2.00;;;20.10;73.00;;;;;;5010669;28;20034;-66
2022/08/06 02:53:31;;;;;;;2.80;1.80;;;20.10;71.90;;;;;;5008569;28;20033;-62
2022/08/06 02:56:03;;;;;;;3.03;2.00;;;20.10;72.10;;;;;;5007969;28;20045;-62
2022/08/06 02:58:33;;;;;;;3.42;1.92;;;20.00;72.00;;;;;;5008817;28;20044;-62
2022/08/06 03:01:00;;;;;;;2.55;1.80;;;20.00;71.80;;;;;;5010620;28;20587;-63
2022/08/06 03:03:27;;;;;;;4.57;1.83;;;20.00;71.70;;;;;;5008972;28;20030;-62
2022/08/06 03:05:56;;;;;;;2.15;1.95;;;20.00;71.80;;;;;;5009790;28;20409;-64
2022/08/06 03:08:24;;;;;;;3.20;2.00;;;19.90;72.10;;;;;;5010362;28;20038;-63
2022/08/06 03:10:53;;;;;;;2.78;1.88;;;19.90;73.20;;;;;;5007426;28;20120;-64
2022/08/06 03:13:21;;;;;;;2.20;2.00;;;19.80;72.60;;;;;;5009857;28;20042;-60
2022/08/06 03:15:48;;;;;;;2.70;1.90;;;19.80;73.00;;;;;;5017223;28;20394;-63
2022/08/06 03:18:16;;;;;;;2.95;1.90;;;19.80;72.70;;;;;;5016888;28;20038;-63
2022/08/06 03:20:43;;;;;;;3.28;1.92;;;19.80;73.10;;;;;;5017106;28;20041;-63
2022/08/06 03:23:11;;;;;;;2.78;2.20;;;19.80;73.00;;;;;;5016053;28;20033;-63
2022/08/06 03:25:39;;;;;;;2.15;1.88;;;19.80;73.10;;;;;;5013247;28;20069;-63
2022/08/06 03:28:06;;;;;;;2.30;2.08;;;19.90;74.30;;;;;;5011341;28;20041;-62
2022/08/06 03:30:32;;;;;;;3.67;2.15;;;19.90;73.20;;;;;;5017001;28;20026;-62
2022/08/06 03:33:01;;;;;;;1.98;1.88;;;19.90;73.30;;;;;;5016914;28;20042;-61
2022/08/06 03:35:27;;;;;;;4.45;2.25;;;19.90;73.50;;;;;;5017288;28;20390;-61
2022/08/06 03:37:56;;;;;;;2.28;1.98;;;19.90;73.20;;;;;;5015885;28;20049;-61
2022/08/06 03:40:23;;;;;;;2.90;2.17;;;20.00;73.30;;;;;;5016450;28;20402;-63
2022/08/06 03:42:49;;;;;;;3.17;1.92;;;19.90;73.10;;;;;;5010170;28;20030;-63
2022/08/06 03:45:14;;;;;;;2.28;2.08;;;19.90;72.60;;;;;;5011603;28;20419;-61
2022/08/06 03:47:44;;;;;;;2.95;2.25;;;19.90;72.80;;;;;;5015557;28;20042;-64
2022/08/06 03:50:13;;;;;;;2.17;1.98;;;19.90;72.80;;;;;;5017435;28;20042;-63
2022/08/06 03:52:46;;;;;;;4.00;2.08;;;19.90;73.10;;;;;;5014409;28;20083;-63
2022/08/06 03:55:17;;;;;;;3.42;2.38;;;19.80;73.10;;;;;;5015996;28;20356;-63
2022/08/06 03:57:48;;;;;;;3.60;2.30;;;19.90;73.50;;;;;;5015258;28;20076;-62
2022/08/06 04:00:16;;;;;;;3.45;1.98;;;19.80;73.40;;;;;;5013467;28;20146;-60
2022/08/06 04:02:46;;;;;;;2.58;2.17;;;19.80;73.70;;;;;;5011419;28;20509;-63
2022/08/06 04:05:18;;;;;;;2.67;2.08;;;19.80;73.70;;;;;;5015524;28;20638;-61
2022/08/06 04:07:44;;;;;;;7.50;2.72;;;19.90;73.90;;;;;;5015439;28;20033;-61
2022/08/06 04:10:11;;;;;;;2.92;2.10;;;19.80;73.40;;;;;;5011055;28;20064;-62
2022/08/06 04:12:37;;;;;;;2.80;2.17;;;19.80;73.70;;;;;;5004461;28;20048;-62
2022/08/06 04:15:05;;;;;;;3.58;2.22;;;19.90;74.00;;;;;;5006617;28;20497;-60
2022/08/06 04:17:31;;;;;;;3.10;1.95;;;19.90;73.90;;;;;;5006424;28;20521;-63
2022/08/06 04:19:59;;;;;;;4.07;2.03;;;19.90;73.70;;;;;;5010042;28;20596;-62
2022/08/06 04:22:25;;;;;;;4.43;2.03;;;19.90;73.90;;;;;;5007103;28;20041;-63
2022/08/06 04:24:50;;;;;;;2.58;2.10;;;19.90;73.40;;;;;;5009427;28;20038;-62
2022/08/06 04:27:19;;;;;;;2.38;2.00;;;19.90;73.20;;;;;;5009517;28;20034;-63
2022/08/06 04:29:46;;;;;;;2.25;2.00;;;19.90;73.70;;;;;;5004214;28;20060;-64
2022/08/06 04:32:14;;;;;;;3.10;2.20;;;19.90;74.00;;;;;;5004985;28;20037;-62
2022/08/06 04:34:42;;;;;;;2.38;1.85;;;20.00;73.50;;;;;;5006847;28;20038;-62
2022/08/06 04:37:08;;;;;;;2.03;1.75;;;19.90;73.20;;;;;;5007718;28;20520;-62
2022/08/06 04:39:35;;;;;;;3.42;1.90;;;19.90;73.10;;;;;;5007884;28;20497;-61
2022/08/06 04:42:01;;;;;;;2.72;1.75;;;20.00;72.60;;;;;;5008018;28;20509;-64
2022/08/06 04:44:28;;;;;;;1.85;1.70;;;19.90;72.10;;;;;;5004211;28;20042;-63
2022/08/06 04:46:55;;;;;;;2.90;1.77;;;19.90;72.00;;;;;;5006147;28;20464;-61
2022/08/06 04:49:20;;;;;;;5.35;1.90;;;19.90;71.70;;;;;;5010811;28;20048;-62
2022/08/06 04:51:47;;;;;;;1.60;1.50;;;19.90;71.80;;;;;;5004447;28;20421;-63
2022/08/06 04:54:14;;;;;;;2.45;1.60;;;19.90;72.00;;;;;;5008734;28;20060;-62
2022/08/06 04:56:40;;;;;;;3.38;1.80;;;19.90;72.50;;;;;;5003994;28;20038;-66
2022/08/06 04:59:06;;;;;;;2.20;1.52;;;19.90;72.00;;;;;;5008879;28;20095;-60
2022/08/06 05:01:32;;;;;;;4.80;1.60;;;19.80;71.60;;;;;;5005342;28;20033;-64
2022/08/06 05:03:57;;;;;;;1.75;1.63;;;19.80;71.40;;;;;;5009833;28;20096;-62
2022/08/06 05:06:43;;;;;;;2.97;1.90;;;19.70;71.10;;;;;;5008088;28;20041;-63
2022/08/06 05:09:14;;;;;;;2.88;1.60;;;19.70;70.90;;;;;;5009216;28;20026;-63
2022/08/06 05:11:42;;;;;;;1.80;1.55;;;19.60;71.10;;;;;;4996782;28;20034;-63
2022/08/06 05:14:15;;;;;;;3.75;1.67;;;19.60;71.10;;;;;;5007971;28;20038;-62
2022/08/06 05:16:44;;;;;;;2.58;1.52;;;19.40;71.60;;;;;;5003412;28;20063;-60
2022/08/06 05:19:17;;;;;;;1.70;1.60;;;19.40;71.70;;;;;;5007700;28;20573;-62
2022/08/06 05:21:45;;;;;;;1.60;1.50;;;19.40;71.40;;;;;;5006693;28;20423;-61
2022/08/06 05:24:11;;;;;;;2.70;1.60;;;19.40;71.40;;;;;;5011310;28;20567;-63
2022/08/06 05:26:37;;;;;;;2.03;1.70;;;19.30;71.40;;;;;;5004658;28;20061;-61
2022/08/06 05:29:03;;;;;;;2.05;1.55;;;19.30;71.10;;;;;;5005427;28;20491;-63
2022/08/06 05:31:37;;;;;;;3.05;1.40;;;19.20;71.20;;;;;;5003953;28;20045;-63
2022/08/06 05:34:03;;;;;;;2.08;1.60;;;19.20;71.50;;;;;;5003722;28;20046;-61
2022/08/06 05:36:29;;;;;;;2.22;1.63;;;19.10;71.60;;;;;;5005222;28;20048;-62
2022/08/06 05:38:55;;;;;;;1.83;1.73;;;19.10;72.00;;;;;;5008180;28;20030;-62
2022/08/06 05:41:21;;;;;;;3.17;1.70;;;19.00;72.30;;;;;;5005546;28;20042;-62
2022/08/06 05:43:47;;;;;;;1.65;1.55;;;19.00;72.60;;;;;;5005801;28;20131;-62
2022/08/06 05:46:19;;;;;;;2.00;1.63;;;19.00;73.20;;;;;;5004692;28;20058;-65
2022/08/06 05:49:01;;;;;;;3.20;1.90;;;19.00;73.30;;;;;;5004838;28;20121;-62
2022/08/06 05:51:53;;;;;;;2.20;1.73;;;18.90;73.70;;;;;;5003094;28;20564;-62
2022/08/06 05:54:46;;;;;;;1.80;1.67;;;18.90;74.10;;;;;;5008889;28;20049;-63
2022/08/06 05:57:34;;;;;;;2.30;1.70;;;18.80;74.00;;;;;;5008862;28;20268;-62
2022/08/06 06:00:08;;;;;;;2.20;2.00;;;18.80;74.60;;;;;;5008370;28;20052;-62
2022/08/06 06:02:35;;;;;;;2.10;1.60;;;18.80;75.10;;;;;;5006021;28;20121;-64
2022/08/06 06:05:01;;;;;;;2.00;1.88;;;18.80;75.00;;;;;;5003698;28;20045;-63
2022/08/06 06:07:27;;;;;;;2.85;1.88;;;18.80;74.90;;;;;;5009572;28;20044;-66
2022/08/06 06:09:55;;;;;;;1.90;1.80;;;18.80;75.10;;;;;;5012553;28;20046;-63
2022/08/06 06:12:21;;;;;;;3.20;1.95;;;18.90;75.10;;;;;;5005768;28;20042;-63
2022/08/06 06:14:49;;;;;;;2.10;1.92;;;18.90;75.30;;;;;;5009640;28;21563;-62
2022/08/06 06:17:27;;;;;;;2.75;2.10;;;19.00;75.60;;;;;;5006502;28;20511;-62
2022/08/06 06:20:06;;;;;;;2.70;1.95;;;19.00;75.20;;;;;;5009208;28;20467;-62
2022/08/06 06:22:41;;;;;;;3.08;2.00;;;19.00;74.60;;;;;;5011170;28;20037;-63
2022/08/06 06:25:13;;;;;;;2.35;2.00;;;19.00;74.60;;;;;;5010140;28;20037;-62
2022/08/06 06:27:45;;;;;;;4.05;2.08;;;19.00;74.30;;;;;;5008690;28;20401;-64
2022/08/06 06:30:42;;;;;;;2.58;1.95;;;19.10;74.60;;;;;;5012305;28;20038;-63
2022/08/06 06:33:19;;;;;;;2.75;1.95;;;19.00;74.40;;;;;;5002722;28;20041;-63
2022/08/06 06:35:59;;;;;;;2.00;1.75;;;19.10;74.20;;;;;;5004976;28;20322;-63
2022/08/06 06:38:31;;;;;;;3.97;1.83;;;19.10;74.50;;;;;;5008980;28;20584;-63
2022/08/06 06:41:17;;;;;;;2.13;1.90;;;19.10;74.00;;;;;;5008340;28;20401;-61
2022/08/06 06:43:46;;;;;;;2.78;2.05;;;19.10;74.50;;;;;;5007429;28;20089;-62
2022/08/06 06:46:22;;;;;;;2.30;2.03;;;19.10;73.80;;;;;;5008667;28;20042;-63
2022/08/06 06:48:51;;;;;;;2.58;2.35;;;19.10;73.50;;;;;;5010084;28;20041;-63
2022/08/06 06:51:41;;;;;;;5.35;2.30;;;19.10;73.00;;;;;;5008922;28;20037;-63
2022/08/06 06:54:10;;;;;;;3.00;2.25;;;19.10;72.90;;;;;;5012057;28;20038;-63
2022/08/06 06:56:42;;;;;;;3.42;2.65;;;19.10;72.60;;;;;;5008818;28;20460;-62
2022/08/06 06:59:18;;;;;;;4.38;3.05;;;19.10;72.60;;;;;;5013682;28;20029;-62
2022/08/06 07:01:48;;;;;;;3.03;2.75;;;19.10;72.90;;;;;;5001199;28;20045;-64
2022/08/06 07:04:16;;;;;;;6.40;2.80;;;19.10;73.30;;;;;;5007120;28;20076;-62
2022/08/06 07:06:46;;;;;;;3.90;2.78;;;19.10;72.60;;;;;;5009378;28;20038;-63
2022/08/06 07:09:22;;;;;;;4.50;2.50;;;19.00;72.50;;;;;;5011213;28;20038;-63
2022/08/06 07:11:51;;;;;;;2.75;2.55;;;19.00;72.80;;;;;;5004161;28;20569;-62
2022/08/06 07:14:19;;;;;;;2.60;2.40;;;19.00;72.50;;;;;;5012730;28;20057;-64
2022/08/06 07:16:48;;;;;;;4.35;2.78;;;19.00;72.60;;;;;;5002422;28;20048;-63
2022/08/06 07:19:16;;;;;;;2.85;2.60;;;19.00;72.50;;;;;;5009841;28;20038;-63
2022/08/06 07:21:43;;;;;;;5.50;2.53;;;19.00;72.80;;;;;;5006716;28;20038;-62
2022/08/06 07:24:11;;;;;;;3.25;2.55;;;19.00;72.90;;;;;;5011519;28;20080;-62
2022/08/06 07:26:38;;;;;;;3.28;2.75;;;19.00;72.90;;;;;;5008430;28;20611;-63
2022/08/06 07:29:04;;;;;;;3.40;2.55;;;19.10;72.70;;;;;;4996589;28;20133;-62
2022/08/06 07:31:31;;;;;;;3.58;2.85;;;19.00;72.60;;;;;;5000357;28;20022;-61
2022/08/06 07:33:58;;;;;;;3.25;2.95;;;19.10;72.90;;;;;;4993854;28;20084;-62
2022/08/06 07:36:27;;;;;;;3.42;3.03;;;19.10;73.00;;;;;;4994671;28;20037;-61
2022/08/06 07:38:58;;;;;;;4.15;3.13;;;19.10;72.80;;;;;;5000216;28;20105;-62
2022/08/06 07:41:25;;;;;;;3.50;3.00;;;19.10;72.60;;;;;;5004978;28;20029;-63
2022/08/06 07:43:54;;;;;;;3.83;3.28;;;19.20;72.90;;;;;;5002846;28;20044;-62
2022/08/06 07:46:28;;;;;;;5.18;3.25;;;19.20;72.70;;;;;;5002622;28;20643;-61
2022/08/06 07:49:04;;;;;;;4.00;3.03;;;19.20;72.40;;;;;;5003299;28;20128;-62
2022/08/06 07:51:33;;;;;;;3.40;3.10;;;19.20;71.90;;;;;;5007026;28;20397;-63
2022/08/06 07:54:03;;;;;;;3.75;3.33;;;19.30;72.00;;;;;;5004014;28;20037;-62
2022/08/06 07:56:30;;;;;;;3.50;3.20;;;19.30;72.80;;;;;;5005556;28;20029;-65
2022/08/06 07:58:56;;;;;;;4.35;3.15;;;19.20;72.00;;;;;;5007950;28;20041;-62
2022/08/06 08:01:24;;;;;;;3.53;3.20;;;19.30;72.30;;;;;;4991191;28;20037;-61
2022/08/06 08:06:34;;;;;;;3.80;3.13;;;19.30;72.30;;;;;;5004354;28;20132;-61
2022/08/06 08:09:05;;;;;;;3.72;3.05;;;19.30;72.40;;;;;;5002256;28;20044;-62
2022/08/06 08:11:32;;;;;;;3.58;2.95;;;19.40;72.60;;;;;;4999174;28;20416;-62
2022/08/06 08:13:58;;;;;;;3.33;2.95;;;19.40;72.80;;;;;;5005653;28;20111;-60
2022/08/06 08:16:26;;;;;;;6.15;3.20;;;19.50;72.80;;;;;;5003080;28;20057;-61
2022/08/06 08:18:52;;;;;;;3.40;3.20;;;19.60;72.60;;;;;;5008814;28;20432;-62
2022/08/06 08:21:19;;;;;;;4.80;3.35;;;19.60;72.50;;;;;;5006568;28;20034;-63
2022/08/06 08:23:46;;;;;;;3.67;3.35;;;19.70;72.10;;;;;;5009437;28;20414;-62
2022/08/06 08:26:13;;;;;;;3.95;3.65;;;19.70;71.80;;;;;;5010461;28;20073;-63
2022/08/06 08:28:39;;;;;;;3.58;3.30;;;19.80;72.40;;;;;;5009308;28;20521;-61
2022/08/06 08:31:06;;;;;;;5.70;3.55;;;19.80;71.60;;;;;;5006545;28;20036;-62
2022/08/06 08:33:32;;;;;;;5.05;3.50;;;19.90;71.50;;;;;;5005051;28;20045;-61
2022/08/06 08:36:00;;;;;;;4.05;3.60;;;19.90;71.30;;;;;;5007736;28;20041;-60
2022/08/06 08:38:27;;;;;;;4.95;3.65;;;19.90;71.00;;;;;;5007631;28;20062;-62
2022/08/06 08:40:54;;;;;;;4.35;3.65;;;20.00;70.40;;;;;;5003909;28;20120;-62
2022/08/06 08:43:24;;;;;;;4.25;3.50;;;19.90;70.30;;;;;;5009450;28;20038;-62
2022/08/06 08:45:54;;;;;;;4.00;3.58;;;20.00;70.60;;;;;;5006225;28;20021;-62
2022/08/06 08:48:28;;;;;;;3.78;3.47;;;20.00;70.60;;;;;;5009704;28;20050;-62
2022/08/06 08:50:58;;;;;;;4.93;4.00;;;20.00;70.80;;;;;;5005734;28;20410;-63
2022/08/06 08:53:37;;;;;;;3.80;3.50;;;20.10;70.40;;;;;;5012024;28;20409;-61
2022/08/06 08:56:05;;;;;;;4.00;3.70;;;20.10;69.60;;;;;;5008771;28;20042;-61
2022/08/06 08:58:36;;;;;;;3.55;3.28;;;20.10;69.90;;;;;;5009337;28;20026;-60
2022/08/06 09:01:04;;;;;;;3.90;3.42;;;20.20;70.10;;;;;;5005110;28;20034;-64
2022/08/06 09:03:30;;;;;;;3.67;3.38;;;20.20;69.90;;;;;;5010236;28;20553;-63
2022/08/06 09:05:56;;;;;;;4.13;3.72;;;20.30;70.10;;;;;;5006935;28;20502;-60
2022/08/06 09:08:22;;;;;;;3.78;3.42;;;20.30;69.90;;;;;;5006792;28;20053;-64
2022/08/06 09:10:48;;;;;;;4.78;3.80;;;20.30;69.70;;;;;;5000777;28;20100;-61
2022/08/06 09:13:13;;;;;;;3.60;3.30;;;20.40;69.50;;;;;;5011043;28;20030;-63
2022/08/06 09:15:40;;;;;;;4.60;3.90;;;20.40;69.50;;;;;;5013108;28;20029;-64
2022/08/06 09:18:05;;;;;;;3.80;3.47;;;20.40;69.20;;;;;;5012272;28;20049;-63
2022/08/06 09:20:32;;;;;;;7.47;4.15;;;20.40;69.00;;;;;;5010583;28;20022;-63
2022/08/06 09:22:58;;;;;;;4.25;3.78;;;20.50;69.00;;;;;;5010011;28;20034;-64
2022/08/06 09:25:45;;;;;;;5.78;4.05;;;20.50;69.30;;;;;;5010034;28;20037;-62
2022/08/06 09:28:34;;;;;;;4.35;3.55;;;20.50;69.20;;;;;;5009329;28;20042;-62
2022/08/06 09:31:20;;;;;;;5.40;3.50;;;20.50;69.30;;;;;;5011252;28;20046;-62
2022/08/06 09:34:00;;;;;;;3.83;3.53;;;20.60;69.60;;;;;;5010484;28;20083;-60
2022/08/06 09:36:27;;;;;;;3.83;3.53;;;20.60;69.20;;;;;;5008903;28;20076;-63
2022/08/06 09:38:58;;;;;;;4.25;3.85;;;20.70;68.90;;;;;;5008338;28;20084;-63
2022/08/06 09:41:27;;;;;;;4.88;3.80;;;20.70;68.20;;;;;;5015438;28;20038;-63
2022/08/06 09:43:54;;;;;;;4.53;4.13;;;20.70;68.30;;;;;;5017457;28;21004;-63
2022/08/06 09:46:39;;;;;;;3.75;3.45;;;20.70;68.30;;;;;;5016805;28;20047;-63
2022/08/06 09:49:05;;;;;;;4.00;3.60;;;20.80;68.00;;;;;;5018395;28;20076;-64
2022/08/06 09:51:34;;;;;;;4.68;4.10;;;20.80;68.30;;;;;;5015372;28;20030;-63
2022/08/06 09:54:02;;;;;;;3.92;3.63;;;20.80;68.30;;;;;;5016528;28;20041;-61
2022/08/06 09:56:28;;;;;;;6.15;4.30;;;20.80;68.40;;;;;;5015550;28;20041;-63
2022/08/06 09:58:59;;;;;;;5.85;4.40;;;20.90;68.00;;;;;;5013430;28;20046;-64
2022/08/06 10:01:25;;;;;;;5.18;4.68;;;20.90;67.90;;;;;;5016144;28;20468;-63
2022/08/06 10:03:57;;;;;;;6.38;5.20;;;21.00;68.10;;;;;;5002993;28;20038;-64
2022/08/06 10:06:24;;;;;;;7.25;5.00;;;21.00;68.10;;;;;;5009618;28;20065;-62
2022/08/06 10:09:08;;;;;;;4.85;4.45;;;21.10;68.10;;;;;;5016388;28;20034;-63
2022/08/06 10:11:39;;;;;;;4.97;4.47;;;21.20;68.10;;;;;;5007738;28;20056;-63
2022/08/06 10:14:05;;;;;;;4.75;4.35;;;21.20;67.80;;;;;;5014079;28;20034;-62
2022/08/06 10:16:31;;;;;;;5.00;4.43;;;21.30;67.50;;;;;;5010702;28;20038;-62
2022/08/06 10:18:59;;;;;;;5.38;4.50;;;21.30;67.30;;;;;;5013792;28;20037;-65
2022/08/06 10:21:34;;;;;;;6.32;4.63;;;21.40;67.20;;;;;;5012677;28;20046;-63
2022/08/06 10:24:04;;;;;;;4.72;4.32;;;21.50;67.00;;;;;;5015787;28;20044;-64
2022/08/06 10:26:32;;;;;;;5.43;4.93;;;21.60;66.90;;;;;;5008769;28;20083;-63
2022/08/06 10:29:04;;;;;;;6.00;4.53;;;21.60;66.60;;;;;;5011263;28;20034;-65
2022/08/06 10:31:31;;;;;;;5.38;4.20;;;21.70;66.30;;;;;;5014934;28;20040;-63
2022/08/06 10:34:02;;;;;;;5.07;4.20;;;21.80;66.30;;;;;;5013674;28;20473;-63
2022/08/06 10:36:36;;;;;;;4.50;4.03;;;21.80;66.20;;;;;;5013654;28;20025;-63
2022/08/06 10:39:03;;;;;;;4.25;3.95;;;21.90;65.60;;;;;;5013208;28;20045;-63
2022/08/06 10:41:30;;;;;;;4.93;4.53;;;22.00;65.60;;;;;;5009351;28;20386;-61
2022/08/06 10:43:56;;;;;;;5.35;4.63;;;22.00;65.30;;;;;;5014498;28;20034;-63
2022/08/06 10:46:23;;;;;;;5.03;4.53;;;22.10;64.90;;;;;;5013358;28;20509;-64
2022/08/06 10:48:53;;;;;;;5.00;4.13;;;22.10;64.80;;;;;;5015244;28;20033;-65
2022/08/06 10:51:19;;;;;;;4.80;4.20;;;22.20;65.00;;;;;;5014904;28;20143;-61
2022/08/06 10:53:46;;;;;;;4.60;4.07;;;22.30;64.80;;;;;;5011122;28;20046;-63
2022/08/06 10:56:14;;;;;;;5.47;3.70;;;22.30;64.00;;;;;;5012088;28;20044;-62
2022/08/06 10:58:41;;;;;;;5.10;4.13;;;22.30;64.00;;;;;;5012974;28;20061;-65
2022/08/06 11:01:35;;;;;;;4.68;4.28;;;22.30;64.20;;;;;;5006553;28;20037;-64
2022/08/06 11:04:32;;;;;;;4.28;3.92;;;22.40;63.30;;;;;;5009069;28;20045;-63
2022/08/06 11:07:43;;;;;;;4.75;4.10;;;22.40;63.10;;;;;;5013356;28;20397;-65
2022/08/06 11:10:47;;;;;;;4.72;4.20;;;22.50;63.60;;;;;;5008988;28;20441;-61
2022/08/06 11:13:24;;;;;;;4.35;3.95;;;22.60;62.80;;;;;;5013441;28;20250;-64
2022/08/06 11:15:50;;;;;;;4.55;4.10;;;22.60;63.40;;;;;;5015439;28;20572;-63
2022/08/06 11:18:16;;;;;;;4.50;4.00;;;22.70;63.10;;;;;;5011540;28;20042;-63
2022/08/06 11:20:44;;;;;;;5.65;4.28;;;22.70;62.60;;;;;;5012691;28;20030;-63
2022/08/06 11:23:13;;;;;;;4.28;3.85;;;22.70;62.10;;;;;;5008550;28;20129;-64
2022/08/06 11:25:39;;;;;;;4.40;4.00;;;22.80;62.80;;;;;;5013464;28;20125;-63
2022/08/06 11:28:07;;;;;;;4.30;3.90;;;22.80;62.30;;;;;;5011480;28;20034;-65
2022/08/06 11:30:37;;;;;;;5.15;4.20;;;22.80;62.00;;;;;;5014893;28;20034;-63
2022/08/06 11:33:02;;;;;;;5.55;4.28;;;22.80;61.70;;;;;;5012168;28;20029;-63
2022/08/06 11:35:34;;;;;;;8.65;4.13;;;22.90;62.00;;;;;;5012761;28;20513;-63
2022/08/06 11:38:01;;;;;;;4.07;3.75;;;22.90;61.30;;;;;;5013762;28;20116;-63
2022/08/06 11:40:27;;;;;;;3.67;3.38;;;23.00;61.70;;;;;;5014098;28;20030;-62
2022/08/06 11:42:52;;;;;;;4.25;3.58;;;23.00;61.30;;;;;;5013461;28;20537;-64
2022/08/06 11:45:19;;;;;;;4.10;3.80;;;23.00;61.20;;;;;;5013131;28;20140;-63
2022/08/06 11:48:06;;;;;;;4.32;3.85;;;23.00;60.50;;;;;;5012815;28;20042;-64
2022/08/06 11:50:32;;;;;;;4.13;3.78;;;23.10;59.60;;;;;;5012145;28;20048;-63
2022/08/06 11:52:58;;;;;;;4.63;3.97;;;23.10;60.30;;;;;;5011903;28;20033;-63
2022/08/06 11:55:23;;;;;;;3.92;3.63;;;23.10;60.00;;;;;;5012437;28;20075;-66
2022/08/06 11:58:17;;;;;;;5.85;3.90;;;23.10;59.80;;;;;;5012902;28;20038;-62
2022/08/06 12:00:58;;;;;;;4.20;3.78;;;23.10;59.30;;;;;;5013534;28;20038;-63
2022/08/06 12:03:40;;;;;;;4.15;3.80;;;23.10;59.50;;;;;;5011636;28;20048;-63
2022/08/06 12:06:22;;;;;;;4.22;3.92;;;23.10;59.40;;;;;;5010083;28;20091;-63
2022/08/06 12:09:12;;;;;;;4.68;4.28;;;23.10;59.20;;;;;;5011938;28;20040;-63
2022/08/06 12:11:38;;;;;;;3.65;3.35;;;23.20;59.10;;;;;;5005419;28;20044;-63
2022/08/06 12:14:04;;;;;;;3.67;3.38;;;23.10;59.90;;;;;;5011673;28;20053;-62
2022/08/06 12:16:35;;;;;;;3.72;3.40;;;23.20;61.00;;;;;;5010250;28;20040;-63
2022/08/06 12:19:04;;;;;;;5.07;3.70;;;23.20;60.60;;;;;;5011257;28;20038;-63
2022/08/06 12:21:29;;;;;;;4.25;3.85;;;23.20;59.90;;;;;;5012888;28;20121;-63
2022/08/06 12:23:55;;;;;;;4.57;4.18;;;23.30;59.60;;;;;;5013321;28;20129;-62
2022/08/06 12:26:22;;;;;;;4.38;3.97;;;23.30;59.30;;;;;;5013227;28;20030;-63
2022/08/06 12:28:49;;;;;;;4.00;3.70;;;23.40;59.20;;;;;;5010912;28;20500;-64
2022/08/06 12:31:31;;;;;;;4.53;3.92;;;23.40;59.10;;;;;;5005195;28;20144;-64
2022/08/06 12:33:57;;;;;;;4.20;3.83;;;23.40;58.90;;;;;;5007791;28;20037;-65
2022/08/06 12:36:29;;;;;;;4.47;4.15;;;23.40;59.90;;;;;;5007256;28;20421;-64
2022/08/06 12:38:56;;;;;;;4.22;3.70;;;23.40;58.60;;;;;;5008787;28;20046;-64
2022/08/06 12:41:22;;;;;;;4.13;3.83;;;23.50;59.00;;;;;;5007365;28;20065;-64
2022/08/06 12:43:47;;;;;;;4.53;4.15;;;23.50;59.30;;;;;;5005685;28;20674;-63
2022/08/06 12:46:15;;;;;;;4.45;4.05;;;23.50;59.60;;;;;;5000913;28;20044;-66
2022/08/06 12:48:48;;;;;;;6.07;4.28;;;23.60;59.00;;;;;;4999057;28;20482;-64
2022/08/06 12:51:14;;;;;;;4.20;3.80;;;23.60;58.40;;;;;;5005597;28;20038;-63
2022/08/06 12:53:52;;;;;;;4.38;3.97;;;23.60;58.60;;;;;;5008645;28;20111;-62
2022/08/06 12:56:19;;;;;;;4.15;3.85;;;23.60;58.70;;;;;;5007083;28;20037;-63
2022/08/06 12:58:46;;;;;;;5.03;4.20;;;23.70;58.60;;;;;;5007909;28;20109;-61
2022/08/06 13:01:17;;;;;;;4.30;4.00;;;23.70;58.40;;;;;;5000943;28;20034;-61
2022/08/06 13:03:46;;;;;;;4.15;3.75;;;23.80;58.20;;;;;;5006141;28;20042;-62
2022/08/06 13:06:14;;;;;;;7.10;3.90;;;23.80;58.20;;;;;;5002184;28;20034;-62